createdAt,value
2019-01-03T00:02:47.475Z,4.53
2019-01-03T00:05:34.905Z,4.50
2019-01-03T00:08:23.677Z,3.00
2019-01-03T00:11:10.818Z,3.23
2019-01-03T00:13:58.098Z,4.53
2019-01-03T00:16:53.978Z,4.33
2019-01-03T00:19:36.602Z,7.17
2019-01-03T00:22:25.181Z,5.87
2019-01-03T00:25:12.482Z,3.37
2019-01-03T00:27:54.859Z,3.30
2019-01-03T00:30:53.027Z,6.03
2019-01-03T00:33:40.152Z,4.60
2019-01-03T00:36:27.297Z,3.07
2019-01-03T00:39:07.609Z,4.00
2019-01-03T00:42:01.944Z,4.83
2019-01-03T00:45:02.390Z,4.23
2019-01-03T00:48:02.568Z,4.83
2019-01-03T00:51:03.362Z,3.40
2019-01-03T00:53:50.267Z,2.43
2019-01-03T00:56:36.819Z,3.13
2019-01-03T00:59:30.387Z,5.80
2019-01-03T01:02:18.834Z,3.47
2019-01-03T01:05:05.714Z,2.80
2019-01-03T01:07:52.847Z,2.50
2019-01-03T01:10:35.469Z,3.30
2019-01-03T01:13:22.816Z,7.27
2019-01-03T01:16:14.264Z,3.53
2019-01-03T01:19:05.147Z,6.43
2019-01-03T01:21:56.368Z,3.67
2019-01-03T01:24:41.027Z,8.33
2019-01-03T01:27:21.512Z,1.93
2019-01-03T01:30:15.686Z,3.37
2019-01-03T01:33:19.066Z,4.23
2019-01-03T01:36:10.392Z,5.83
2019-01-03T01:38:52.296Z,3.63
2019-01-03T01:41:43.624Z,3.53
2019-01-03T01:44:32.151Z,2.97
2019-01-03T01:47:23.099Z,2.57
2019-01-03T01:50:02.488Z,4.50
2019-01-03T01:52:56.531Z,4.63
2019-01-03T01:55:39.924Z,3.43
2019-01-03T01:58:34.200Z,7.13
2019-01-03T02:01:26.589Z,3.60
2019-01-03T02:04:21.945Z,5.30
2019-01-03T02:07:10.354Z,4.80
2019-01-03T02:10:11.024Z,2.97
2019-01-03T02:12:54.572Z,4.63
2019-01-03T02:15:43.008Z,4.03
2019-01-03T02:18:30.166Z,4.57
2019-01-03T02:21:36.033Z,3.70
2019-01-03T02:24:30.374Z,4.13
2019-01-03T02:27:20.653Z,3.63
2019-01-03T02:30:15.296Z,4.63
2019-01-03T02:33:04.438Z,4.33
2019-01-03T02:35:51.964Z,5.60
2019-01-03T02:38:42.197Z,3.43
2019-01-03T02:41:39.517Z,3.77
2019-01-03T02:44:26.529Z,3.47
2019-01-03T02:47:24.066Z,5.17
2019-01-03T02:50:18.831Z,4.43
2019-01-03T02:53:10.218Z,4.77
2019-01-03T02:55:56.385Z,3.20
2019-01-03T02:58:40.254Z,3.60
2019-01-03T03:01:27.584Z,3.17
2019-01-03T03:04:25.400Z,4.43
2019-01-03T03:07:08.526Z,2.53
2019-01-03T03:09:55.666Z,3.80
2019-01-03T03:12:53.139Z,2.70
2019-01-03T03:15:41.597Z,6.00
2019-01-03T03:18:29.743Z,3.80
2019-01-03T03:21:16.543Z,4.07
2019-01-03T03:23:56.397Z,4.13
2019-01-03T03:26:47.679Z,4.57
2019-01-03T03:29:28.831Z,2.37
2019-01-03T03:32:35.220Z,4.50
2019-01-03T03:35:26.732Z,2.50
2019-01-03T03:38:13.654Z,4.60
2019-01-03T03:41:05.302Z,4.57
2019-01-03T03:44:02.792Z,4.17
2019-01-03T03:46:56.646Z,5.17
2019-01-03T03:49:43.783Z,5.27
2019-01-03T03:52:35.396Z,2.70
2019-01-03T03:55:26.842Z,6.40
2019-01-03T03:58:27.133Z,5.50
2019-01-03T04:01:13.915Z,2.77
2019-01-03T04:04:11.355Z,4.23
2019-01-03T04:07:08.598Z,6.00
2019-01-03T04:10:02.016Z,2.63
2019-01-03T04:12:47.921Z,6.10
2019-01-03T04:15:48.338Z,3.90
2019-01-03T04:18:32.192Z,4.10
2019-01-03T04:21:29.888Z,4.00
2019-01-03T04:24:18.417Z,5.97
2019-01-03T04:27:01.638Z,3.67
2019-01-03T04:29:59.203Z,5.17
2019-01-03T04:32:48.460Z,4.33
2019-01-03T04:35:42.437Z,4.80
2019-01-03T04:38:26.979Z,4.83
2019-01-03T04:41:14.139Z,2.87
2019-01-03T04:44:00.892Z,4.87
2019-01-03T04:46:52.388Z,4.63
2019-01-03T04:49:40.900Z,4.43
2019-01-03T04:52:44.483Z,2.67
2019-01-03T04:55:51.178Z,2.60
2019-01-03T04:58:39.659Z,3.90
2019-01-03T05:02:02.808Z,6.50
2019-01-03T05:04:43.298Z,2.93
2019-01-03T05:07:25.756Z,3.47
2019-01-03T05:10:14.228Z,4.30
2019-01-03T05:13:03.159Z,4.20
2019-01-03T05:15:50.274Z,5.73
2019-01-03T05:18:45.046Z,8.50
2019-01-03T05:21:32.506Z,3.83
2019-01-03T05:24:19.667Z,2.20
2019-01-03T05:27:09.022Z,7.37
2019-01-03T05:30:03.199Z,5.47
2019-01-03T05:32:54.508Z,6.07
2019-01-03T05:35:54.749Z,5.87
2019-01-03T05:38:48.327Z,5.97
2019-01-03T05:41:36.836Z,3.43
2019-01-03T05:44:28.229Z,3.87
2019-01-03T05:47:15.192Z,4.43
2019-01-03T05:50:03.657Z,2.20
2019-01-03T05:52:45.759Z,2.90
2019-01-03T05:55:49.257Z,3.40
2019-01-03T05:58:39.911Z,2.90
2019-01-03T06:01:46.649Z,4.93
2019-01-03T06:04:29.326Z,4.77
2019-01-03T06:07:16.226Z,5.83
2019-01-03T06:10:07.791Z,5.00
2019-01-03T06:12:51.218Z,6.37
2019-01-03T06:15:35.095Z,7.13
2019-01-03T06:18:22.114Z,5.83
2019-01-03T06:21:09.399Z,3.83
2019-01-03T06:23:56.910Z,5.73
2019-01-03T06:26:43.758Z,3.90
2019-01-03T06:29:31.029Z,5.80
2019-01-03T06:32:19.460Z,5.50
2019-01-03T06:35:06.455Z,5.13
2019-01-03T06:37:53.473Z,5.97
2019-01-03T06:40:40.934Z,5.13
2019-01-03T06:43:35.537Z,3.53
2019-01-03T06:46:36.247Z,4.50
2019-01-03T06:49:33.737Z,3.93
2019-01-03T06:52:22.250Z,6.70
2019-01-03T06:55:16.592Z,3.97
2019-01-03T06:58:04.695Z,5.27
2019-01-03T07:00:51.721Z,5.63
2019-01-03T07:03:58.444Z,4.17
2019-01-03T07:07:05.105Z,5.57
2019-01-03T07:10:11.609Z,5.10
2019-01-03T07:12:58.552Z,8.40
2019-01-03T07:15:48.246Z,4.20
2019-01-03T07:18:39.731Z,4.20
2019-01-03T07:21:28.290Z,9.77
2019-01-03T07:24:25.510Z,4.80
2019-01-03T07:27:18.375Z,6.30
2019-01-03T07:30:12.851Z,9.47
2019-01-03T07:32:59.832Z,5.43
2019-01-03T07:36:03.438Z,5.17
2019-01-03T07:38:46.154Z,5.07
2019-01-03T07:41:33.419Z,6.63
2019-01-03T07:44:34.083Z,7.80
2019-01-03T07:47:30.063Z,6.63
2019-01-03T07:50:13.163Z,4.80
2019-01-03T07:53:00.387Z,4.00
2019-01-03T07:55:47.319Z,9.90
2019-01-03T07:58:41.797Z,10.30
2019-01-03T08:01:39.357Z,5.33
2019-01-03T08:04:26.267Z,2.97
2019-01-03T08:07:11.333Z,8.77
2019-01-03T08:10:12.152Z,7.77
2019-01-03T08:12:59.051Z,7.83
2019-01-03T08:15:47.732Z,7.17
2019-01-03T08:18:39.524Z,4.20
2019-01-03T08:21:28.096Z,4.57
2019-01-03T08:24:25.675Z,6.03
2019-01-03T08:27:12.913Z,11.87
2019-01-03T08:30:04.394Z,4.67
2019-01-03T08:32:55.037Z,6.83
2019-01-03T08:35:44.552Z,4.83
2019-01-03T08:38:35.763Z,9.20
2019-01-03T08:41:26.598Z,5.77
2019-01-03T08:44:24.519Z,8.80
2019-01-03T08:47:13.089Z,4.67
2019-01-03T08:50:01.534Z,4.93
2019-01-03T08:52:58.997Z,6.43
2019-01-03T08:55:55.102Z,3.87
2019-01-03T08:58:33.748Z,4.37
2019-01-03T09:01:25.100Z,4.00
2019-01-03T09:04:12.829Z,5.77
2019-01-03T09:07:10.322Z,4.73
2019-01-03T09:09:57.525Z,5.53
2019-01-03T09:12:50.204Z,2.87
2019-01-03T09:15:38.670Z,5.00
2019-01-03T09:18:25.730Z,10.73
2019-01-03T09:21:23.403Z,4.67
2019-01-03T09:24:16.455Z,4.37
2019-01-03T09:27:16.873Z,7.13
2019-01-03T09:30:03.549Z,5.57
2019-01-03T09:32:50.721Z,4.50
2019-01-03T09:35:37.970Z,4.90
2019-01-03T09:38:35.396Z,6.90
2019-01-03T09:41:23.999Z,2.93
2019-01-03T09:44:14.720Z,7.83
2019-01-03T09:46:44.137Z,7.27
2019-01-03T09:49:13.564Z,4.70
2019-01-03T09:51:42.990Z,4.00
2019-01-03T09:54:12.433Z,7.17
2019-01-03T09:56:41.861Z,5.77
2019-01-03T09:59:11.304Z,7.50
2019-01-03T10:01:40.780Z,4.17
2019-01-03T10:04:10.284Z,4.70
2019-01-03T10:06:39.994Z,7.67
2019-01-03T10:09:09.391Z,5.27
2019-01-03T10:11:38.873Z,6.23
2019-01-03T10:14:08.413Z,4.80
2019-01-03T10:16:37.977Z,6.17
2019-01-03T10:19:07.486Z,8.10
2019-01-03T10:21:36.997Z,5.87
2019-01-03T10:24:06.595Z,5.23
2019-01-03T10:26:36.120Z,5.30
2019-01-03T10:29:05.631Z,4.20
2019-01-03T10:31:35.090Z,6.27
2019-01-03T10:34:04.631Z,5.77
2019-01-03T10:36:34.105Z,7.93
2019-01-03T10:39:04.935Z,3.77
2019-01-03T10:41:34.624Z,5.97
2019-01-03T10:44:04.149Z,7.00
2019-01-03T10:46:33.603Z,5.27
2019-01-03T10:49:03.008Z,4.63
2019-01-03T10:51:32.585Z,6.20
2019-01-03T10:54:02.010Z,4.87
2019-01-03T10:56:31.525Z,5.47
2019-01-03T10:59:01.116Z,4.93
2019-01-03T11:01:30.686Z,6.30
2019-01-03T11:04:00.194Z,5.80
2019-01-03T11:06:29.634Z,5.53
2019-01-03T11:08:59.144Z,6.90
2019-01-03T11:11:28.666Z,5.87
2019-01-03T11:13:58.082Z,4.93
2019-01-03T11:16:27.853Z,7.00
2019-01-03T11:18:57.277Z,4.50
2019-01-03T11:21:26.785Z,4.27
2019-01-03T11:23:56.199Z,5.27
2019-01-03T11:26:25.707Z,8.40
2019-01-03T11:28:55.264Z,4.00
2019-01-03T11:31:24.907Z,5.17
2019-01-03T11:33:54.323Z,4.97
2019-01-03T11:36:23.931Z,10.40
2019-01-03T11:38:53.415Z,4.17
2019-01-03T11:41:22.915Z,4.60
2019-01-03T11:43:52.324Z,5.27
2019-01-03T11:46:21.779Z,6.27
2019-01-03T11:48:51.357Z,3.00
2019-01-03T11:51:21.510Z,3.97
2019-01-03T11:53:50.901Z,9.40
2019-01-03T11:56:20.379Z,5.93
2019-01-03T11:58:49.824Z,5.47
2019-01-03T12:01:19.213Z,4.73
2019-01-03T12:03:48.679Z,3.77
2019-01-03T12:06:18.066Z,4.33
2019-01-03T12:08:47.475Z,6.50
2019-01-03T12:11:16.944Z,5.67
2019-01-03T12:13:46.450Z,4.27
2019-01-03T12:16:15.968Z,4.57
2019-01-03T12:18:45.442Z,4.10
2019-01-03T12:21:14.863Z,4.27
2019-01-03T12:23:44.304Z,7.87
2019-01-03T12:26:13.767Z,4.83
2019-01-03T12:28:43.211Z,5.17
2019-01-03T12:31:12.603Z,5.73
2019-01-03T12:33:42.032Z,4.83
2019-01-03T12:36:11.516Z,6.87
2019-01-03T12:38:40.928Z,8.53
2019-01-03T12:41:10.357Z,5.30
2019-01-03T12:43:39.758Z,5.87
2019-01-03T12:46:09.332Z,4.73
2019-01-03T12:48:38.738Z,7.73
2019-01-03T12:51:08.161Z,8.10
2019-01-03T12:53:37.641Z,4.00
2019-01-03T12:56:07.176Z,3.27
2019-01-03T12:58:36.599Z,3.60
2019-01-03T13:01:06.099Z,6.13
2019-01-03T13:03:35.612Z,6.87
2019-01-03T13:06:04.969Z,7.37
2019-01-03T13:08:34.525Z,5.10
2019-01-03T13:11:04.067Z,7.50
2019-01-03T13:13:33.526Z,7.33
2019-01-03T13:16:03.406Z,5.83
2019-01-03T13:18:32.818Z,2.97
2019-01-03T13:21:02.216Z,4.03
2019-01-03T13:23:31.753Z,3.53
2019-01-03T13:26:01.235Z,6.13
2019-01-03T13:28:30.820Z,7.17
2019-01-03T13:31:00.378Z,4.23
2019-01-03T13:33:29.865Z,4.63
2019-01-03T13:35:59.352Z,5.23
2019-01-03T13:38:28.810Z,6.80
2019-01-03T13:41:00.805Z,6.97
2019-01-03T13:43:30.348Z,4.83
2019-01-03T13:45:59.877Z,4.93
2019-01-03T13:48:29.326Z,8.83
2019-01-03T13:50:59.102Z,5.77
2019-01-03T13:53:28.785Z,7.63
2019-01-03T13:55:58.691Z,5.93
2019-01-03T13:58:28.108Z,5.00
2019-01-03T14:00:57.541Z,7.67
2019-01-03T14:03:26.963Z,13.63
2019-01-03T14:05:56.393Z,3.87
2019-01-03T14:08:25.792Z,5.07
2019-01-03T14:10:55.214Z,4.90
2019-01-03T14:13:24.802Z,4.23
2019-01-03T14:15:54.284Z,8.13
2019-01-03T14:18:23.763Z,5.60
2019-01-03T14:20:53.238Z,6.27
2019-01-03T14:23:22.656Z,11.47
2019-01-03T14:25:52.079Z,5.40
2019-01-03T14:28:21.488Z,7.03
2019-01-03T14:30:50.912Z,4.57
2019-01-03T14:33:20.366Z,5.83
2019-01-03T14:35:50.817Z,8.27
2019-01-03T14:38:20.562Z,4.83
2019-01-03T14:40:50.192Z,7.53
2019-01-03T14:43:19.594Z,10.10
2019-01-03T14:45:49.110Z,8.13
2019-01-03T14:48:18.606Z,10.40
2019-01-03T14:50:48.216Z,7.07
2019-01-03T14:53:17.763Z,6.87
2019-01-03T14:55:47.427Z,9.17
2019-01-03T14:58:17.085Z,7.00
2019-01-03T15:00:46.540Z,9.63
2019-01-03T15:03:16.068Z,9.33
2019-01-03T15:05:45.660Z,9.23
2019-01-03T15:08:15.104Z,9.30
2019-01-03T15:10:44.559Z,7.60
2019-01-03T15:13:14.064Z,7.33
2019-01-03T15:15:43.567Z,11.57
2019-01-03T15:18:13.218Z,10.73
2019-01-03T15:20:43.625Z,10.93
2019-01-03T15:23:13.144Z,13.60
2019-01-03T15:25:42.920Z,8.37
2019-01-03T15:28:13.308Z,10.63
2019-01-03T15:30:42.731Z,12.10
2019-01-03T15:33:12.287Z,6.93
2019-01-03T15:35:41.784Z,12.00
2019-01-03T15:38:11.348Z,10.00
2019-01-03T15:40:40.897Z,8.50
2019-01-03T15:43:10.438Z,10.97
2019-01-03T15:45:39.904Z,13.33
2019-01-03T15:48:09.532Z,9.63
2019-01-03T15:50:39.094Z,7.30
2019-01-03T15:53:08.637Z,11.77
2019-01-03T15:55:38.144Z,13.93
2019-01-03T15:58:07.616Z,13.10
2019-01-03T16:00:37.147Z,13.00
2019-01-03T16:03:06.574Z,11.30
2019-01-03T16:05:35.987Z,7.53
2019-01-03T16:08:05.458Z,14.43
2019-01-03T16:10:35.009Z,10.33
2019-01-03T16:13:04.471Z,10.00
2019-01-03T16:15:34.292Z,6.23
2019-01-03T16:18:03.876Z,6.67
2019-01-03T16:20:33.382Z,8.30
2019-01-03T16:23:02.903Z,6.77
2019-01-03T16:25:32.382Z,8.63
2019-01-03T16:28:01.784Z,7.50
2019-01-03T16:30:31.220Z,8.07
2019-01-03T16:33:00.672Z,9.53
2019-01-03T16:35:30.425Z,12.00
2019-01-03T16:37:59.850Z,6.77
2019-01-03T16:40:29.306Z,9.10
2019-01-03T16:42:58.754Z,8.20
2019-01-03T16:45:28.259Z,12.37
2019-01-03T16:47:57.681Z,14.20
2019-01-03T16:50:27.214Z,12.30
2019-01-03T16:52:56.743Z,10.07
2019-01-03T16:55:26.333Z,9.17
2019-01-03T16:57:55.782Z,13.20
2019-01-03T17:00:25.288Z,13.67
2019-01-03T17:02:54.839Z,10.73
2019-01-03T17:05:24.400Z,10.37
2019-01-03T17:07:53.907Z,8.53
2019-01-03T17:10:23.397Z,9.23
2019-01-03T17:12:52.863Z,10.20
2019-01-03T17:15:22.778Z,9.50
2019-01-03T17:17:52.465Z,9.87
2019-01-03T17:20:21.969Z,13.33
2019-01-03T17:22:51.460Z,7.57
2019-01-03T17:25:20.952Z,12.97
2019-01-03T17:27:50.438Z,10.90
2019-01-03T17:30:19.877Z,12.27
2019-01-03T17:32:49.352Z,8.77
2019-01-03T17:35:18.853Z,14.93
2019-01-03T17:37:48.373Z,11.37
2019-01-03T17:40:17.925Z,10.80
2019-01-03T17:42:47.777Z,10.30
2019-01-03T17:45:17.293Z,13.27
2019-01-03T17:47:46.709Z,8.43
2019-01-03T17:50:16.254Z,11.33
2019-01-03T17:52:45.704Z,10.63
2019-01-03T17:55:15.317Z,14.07
2019-01-03T17:57:44.823Z,7.37
2019-01-03T18:00:20.211Z,8.87
2019-01-03T18:02:49.913Z,11.70
2019-01-03T18:05:19.300Z,10.30
2019-01-03T18:07:49.116Z,10.47
2019-01-03T18:10:18.589Z,10.20
2019-01-03T18:12:48.304Z,11.40
2019-01-03T18:15:18.326Z,12.03
2019-01-03T18:17:47.790Z,13.90
2019-01-03T18:20:18.233Z,8.20
2019-01-03T18:22:47.637Z,9.33
2019-01-03T18:25:17.215Z,10.57
2019-01-03T18:27:46.750Z,8.63
2019-01-03T18:30:16.194Z,8.80
2019-01-03T18:32:46.186Z,6.90
2019-01-03T18:35:15.754Z,10.63
2019-01-03T18:37:45.202Z,9.77
2019-01-03T18:40:16.249Z,8.40
2019-01-03T18:42:46.682Z,8.83
2019-01-03T18:45:19.462Z,11.43
2019-01-03T18:47:48.895Z,10.13
2019-01-03T18:50:19.037Z,10.77
2019-01-03T18:52:48.769Z,12.70
2019-01-03T18:55:18.345Z,12.07
2019-01-03T18:57:47.906Z,11.37
2019-01-03T19:00:17.623Z,10.53
2019-01-03T19:02:48.112Z,12.17
2019-01-03T19:05:17.798Z,15.67
2019-01-03T19:07:49.655Z,11.73
2019-01-03T19:10:20.948Z,11.00
2019-01-03T19:12:50.407Z,12.30
2019-01-03T19:15:20.049Z,14.43
2019-01-03T19:17:49.621Z,11.43
2019-01-03T19:20:19.877Z,10.10
2019-01-03T19:22:49.385Z,9.67
2019-01-03T19:25:19.528Z,11.63
2019-01-03T19:27:49.422Z,9.40
2019-01-03T19:30:19.144Z,10.93
2019-01-03T19:32:48.588Z,10.50
2019-01-03T19:35:18.262Z,10.57
2019-01-03T19:37:47.972Z,11.33
2019-01-03T19:40:17.563Z,12.67
2019-01-03T19:42:47.744Z,11.93
2019-01-03T19:45:17.427Z,12.60
2019-01-03T19:47:47.007Z,14.40
2019-01-03T19:50:18.891Z,13.50
2019-01-03T19:52:48.672Z,11.83
2019-01-03T19:55:18.320Z,12.40
2019-01-03T19:57:48.208Z,12.80
2019-01-03T20:00:20.186Z,12.73
2019-01-03T20:02:49.798Z,16.30
2019-01-03T20:05:19.428Z,14.67
2019-01-03T20:07:49.495Z,10.37
2019-01-03T20:10:19.103Z,8.63
2019-01-03T20:12:48.799Z,10.20
2019-01-03T20:15:18.437Z,12.90
2019-01-03T20:17:47.989Z,14.93
2019-01-03T20:20:17.567Z,12.57
2019-01-03T20:22:47.111Z,10.87
2019-01-03T20:25:16.940Z,10.60
2019-01-03T20:27:46.605Z,10.17
2019-01-03T20:30:16.120Z,9.70
2019-01-03T20:32:45.724Z,11.97
2019-01-03T20:35:15.169Z,11.20
2019-01-03T20:37:44.752Z,11.13
2019-01-03T20:40:14.650Z,11.87
2019-01-03T20:42:44.293Z,11.07
2019-01-03T20:45:14.015Z,10.97
2019-01-03T20:47:43.670Z,8.33
2019-01-03T20:50:13.263Z,12.43
2019-01-03T20:52:42.916Z,4.63
2019-01-03T20:55:12.547Z,8.30
2019-01-03T20:57:42.164Z,11.20
2019-01-03T21:00:13.517Z,11.00
2019-01-03T21:02:43.057Z,8.20
2019-01-03T21:05:12.665Z,10.57
2019-01-03T21:07:42.119Z,11.67
2019-01-03T21:10:12.664Z,12.27
2019-01-03T21:12:42.470Z,11.33
2019-01-03T21:15:17.577Z,8.83
2019-01-03T21:17:47.056Z,8.97
2019-01-03T21:20:17.614Z,13.33
2019-01-03T21:22:47.242Z,9.47
2019-01-03T21:25:16.793Z,11.13
2019-01-03T21:27:46.235Z,11.47
2019-01-03T21:30:18.166Z,11.97
2019-01-03T21:32:47.668Z,10.77
2019-01-03T21:35:17.231Z,9.87
2019-01-03T21:37:46.648Z,11.57
2019-01-03T21:40:16.306Z,8.60
2019-01-03T21:42:45.923Z,9.43
2019-01-03T21:45:15.370Z,11.70
2019-01-03T21:47:44.846Z,12.83
2019-01-03T21:50:14.349Z,8.97
2019-01-03T21:52:43.879Z,9.70
2019-01-03T21:55:13.426Z,10.33
2019-01-03T21:57:42.957Z,9.90
2019-01-03T22:00:13.221Z,11.73
2019-01-03T22:02:42.964Z,10.87
2019-01-03T22:05:12.477Z,10.80
2019-01-03T22:07:41.978Z,11.63
2019-01-03T22:10:11.737Z,12.33
2019-01-03T22:12:41.268Z,10.07
2019-01-03T22:15:11.070Z,11.50
2019-01-03T22:17:40.545Z,12.53
2019-01-03T22:20:10.719Z,10.63
2019-01-03T22:22:40.219Z,10.37
2019-01-03T22:25:09.770Z,11.00
2019-01-03T22:27:39.230Z,9.40
2019-01-03T22:30:10.307Z,13.87
2019-01-03T22:32:39.755Z,8.83
2019-01-03T22:35:09.315Z,11.70
2019-01-03T22:37:38.765Z,9.87
2019-01-03T22:40:08.905Z,13.50
2019-01-03T22:42:38.389Z,12.23
2019-01-03T22:45:09.274Z,13.07
2019-01-03T22:47:38.840Z,9.90
2019-01-03T22:50:09.336Z,7.77
2019-01-03T22:52:38.786Z,10.73
2019-01-03T22:55:08.340Z,10.73
2019-01-03T22:57:37.743Z,8.03
2019-01-03T23:00:23.912Z,8.67
2019-01-03T23:02:53.405Z,8.13
2019-01-03T23:05:22.907Z,10.13
2019-01-03T23:07:52.387Z,7.97
2019-01-03T23:10:21.946Z,8.57
2019-01-03T23:12:51.539Z,8.60
2019-01-03T23:15:21.044Z,7.93
2019-01-03T23:17:50.608Z,8.30
2019-01-03T23:20:20.114Z,10.87
2019-01-03T23:22:49.644Z,7.70
2019-01-03T23:25:19.067Z,10.70
2019-01-03T23:27:48.554Z,11.10
2019-01-03T23:30:18.039Z,11.17
2019-01-03T23:32:47.566Z,10.03
2019-01-03T23:35:17.075Z,11.23
2019-01-03T23:37:46.485Z,11.27
2019-01-03T23:40:16.007Z,10.03
2019-01-03T23:42:45.396Z,11.60
2019-01-03T23:45:22.815Z,9.37
2019-01-03T23:47:54.538Z,9.73
2019-01-03T23:50:29.289Z,9.73
2019-01-03T23:52:58.761Z,10.03
2019-01-03T23:55:29.323Z,10.33
2019-01-03T23:57:58.783Z,8.80
